Time;durP1;ratioP1;P1;durP2;ratioP2;P2;SDS_P1;SDS_P2;PMS_P1;PMS_P2;Temp;Humidity;BMP_temperature;BMP_pressure;BME280_temperature;BME280_humidity;BME280_pressure;Samples;Min_cycle;Max_cycle;Signal;HPM_P1;HPM_P2
2024/01/28 00:00:35;;;;;;;3.50;2.13;;;;;;;6.37;57.29;99156.03;5115872;28;20183;-56
2024/01/28 00:03:01;;;;;;;1.58;1.48;;;;;;;5.85;57.07;99076.75;5115761;28;20291;-56
2024/01/28 00:05:26;;;;;;;1.73;1.63;;;;;;;6.41;57.08;99160.13;5115767;28;20250;-56
2024/01/28 00:07:52;;;;;;;1.48;1.33;;;;;;;6.42;57.01;99174.63;5115870;28;20187;-56
2024/01/28 00:10:17;;;;;;;2.40;2.20;;;;;;;6.19;57.78;99148.19;5115680;28;20176;-56
2024/01/28 00:12:43;;;;;;;2.55;1.80;;;;;;;6.44;57.72;99187.44;5115585;28;20301;-57
2024/01/28 00:15:10;;;;;;;1.30;1.23;;;;;;;6.18;57.51;99152.47;5115204;28;20183;-57
2024/01/28 00:17:36;;;;;;;1.40;1.27;;;;;;;6.42;57.85;99197.78;5115395;28;20266;-57
2024/01/28 00:20:05;;;;;;;1.42;1.33;;;;;;;6.36;57.71;99177.44;5115510;28;20618;-57
2024/01/28 00:22:31;;;;;;;1.60;1.40;;;;;;;6.09;58.17;99131.44;5115534;28;20365;-57
2024/01/28 00:24:56;;;;;;;1.85;1.33;;;;;;;6.45;57.88;99195.09;5115320;28;20599;-57
2024/01/28 00:27:22;;;;;;;1.42;1.13;;;;;;;6.53;57.43;99211.03;5115271;28;20172;-57
2024/01/28 00:29:47;;;;;;;1.58;1.48;;;;;;;6.01;57.72;99106.06;5115135;28;20247;-57
2024/01/28 00:32:13;;;;;;;2.38;1.50;;;;;;;6.29;57.70;99173.44;5115314;28;20172;-57
2024/01/28 00:34:38;;;;;;;2.35;1.60;;;;;;;6.42;58.18;99202.09;5115160;28;20179;-57
2024/01/28 00:37:03;;;;;;;1.80;1.40;;;;;;;6.37;58.59;99193.72;5115410;27;20180;-57
2024/01/28 00:39:29;;;;;;;3.15;1.25;;;;;;;6.02;58.95;99146.28;5115124;28;20272;-57
2024/01/28 00:41:55;;;;;;;1.67;1.25;;;;;;;6.42;59.27;99208.03;5112423;28;20191;-57
2024/01/28 00:44:21;;;;;;;1.92;1.58;;;;;;;6.49;59.17;99209.50;5112498;28;20219;-57
2024/01/28 00:46:46;;;;;;;1.50;1.40;;;;;;;6.27;59.32;99188.09;5112479;28;20214;-57
2024/01/28 00:49:12;;;;;;;1.75;1.40;;;;;;;5.99;58.95;99136.13;5112454;28;20182;-56
2024/01/28 00:51:38;;;;;;;2.25;1.52;;;;;;;6.11;59.75;99171.59;5112310;28;20188;-57
2024/01/28 00:54:04;;;;;;;2.17;1.50;;;;;;;6.21;59.68;99180.63;5112437;28;20180;-57
2024/01/28 00:56:29;;;;;;;2.97;1.67;;;;;;;6.53;59.21;99223.88;5112347;28;20674;-57
2024/01/28 00:58:55;;;;;;;3.13;1.50;;;;;;;6.51;58.96;99212.00;5112241;28;20213;-57
2024/01/28 01:01:20;;;;;;;3.53;1.80;;;;;;;5.97;59.23;99132.78;5112187;28;20188;-56
2024/01/28 01:03:47;;;;;;;1.30;1.20;;;;;;;6.50;59.22;99226.59;5112008;28;20207;-57
2024/01/28 01:06:12;;;;;;;1.38;1.38;;;;;;;6.55;59.18;99237.53;5111625;28;20215;-57
2024/01/28 01:08:38;;;;;;;2.38;1.45;;;;;;;6.23;59.25;99175.44;5111590;28;20211;-57
2024/01/28 01:11:06;;;;;;;1.45;1.38;;;;;;;6.13;59.49;99177.50;5091364;28;20188;-57
2024/01/28 01:13:32;;;;;;;1.85;1.40;;;;;;;6.07;59.84;99176.94;5107098;28;20188;-56
2024/01/28 01:15:58;;;;;;;1.30;1.20;;;;;;;5.76;59.90;99119.91;5111846;28;20644;-56
2024/01/28 01:18:23;;;;;;;1.60;1.50;;;;;;;6.28;60.01;99210.34;5111879;28;20207;-57
2024/01/28 01:20:49;;;;;;;2.72;1.50;;;;;;;5.94;60.22;99150.03;5111566;28;20627;-56
2024/01/28 01:23:15;;;;;;;1.70;1.60;;;;;;;5.71;60.66;99138.03;5111932;28;20766;-56
2024/01/28 01:25:40;;;;;;;1.90;1.80;;;;;;;5.99;60.59;99166.94;5111770;28;20267;-57
2024/01/28 01:28:06;;;;;;;2.25;1.67;;;;;;;6.29;60.75;99214.56;5111737;28;20183;-56
2024/01/28 01:30:31;;;;;;;1.30;1.20;;;;;;;6.29;60.32;99212.00;5111693;28;20190;-56
2024/01/28 01:32:57;;;;;;;3.50;1.70;;;;;;;5.97;60.79;99161.03;5111600;28;20622;-56
2024/01/28 01:35:22;;;;;;;3.72;1.30;;;;;;;6.22;61.00;99202.00;5111605;28;20180;-57
2024/01/28 01:37:48;;;;;;;1.80;1.70;;;;;;;5.87;60.79;99133.16;5111382;28;20677;-57
2024/01/28 01:40:16;;;;;;;1.40;1.30;;;;;;;6.23;60.38;99185.72;5111461;28;20612;-57
2024/01/28 01:42:43;;;;;;;2.92;1.50;;;;;;;5.91;60.47;99127.88;5112956;28;20318;-56
2024/01/28 01:45:09;;;;;;;2.40;1.80;;;;;;;6.44;60.47;99221.69;5113838;27;20176;-57
2024/01/28 01:47:35;;;;;;;1.88;1.48;;;;;;;5.88;60.32;99132.31;5113823;28;20197;-57
2024/01/28 01:50:02;;;;;;;2.53;1.45;;;;;;;6.36;60.79;99223.72;5113721;28;20218;-56
2024/01/28 01:52:28;;;;;;;2.80;1.50;;;;;;;6.41;60.48;99221.81;5111040;28;20194;-57
2024/01/28 01:54:55;;;;;;;1.88;1.77;;;;;;;6.08;60.33;99166.59;5111114;28;20253;-57
2024/01/28 01:57:20;;;;;;;1.60;1.50;;;;;;;6.24;61.15;99216.47;5111153;28;20176;-56
2024/01/28 01:59:46;;;;;;;2.95;1.70;;;;;;;6.38;60.78;99250.22;5111145;28;20215;-57
2024/01/28 02:02:12;;;;;;;2.45;1.60;;;;;;;6.14;60.71;99179.22;5111067;28;20190;-57
2024/01/28 02:04:38;;;;;;;2.38;1.73;;;;;;;5.94;60.62;99143.16;5110973;28;20305;-57
2024/01/28 02:07:04;;;;;;;2.85;1.80;;;;;;;6.33;60.97;99218.72;5110933;28;20192;-57
2024/01/28 02:09:31;;;;;;;2.33;1.80;;;;;;;6.45;60.93;99238.78;5110959;28;20195;-57
2024/01/28 02:11:56;;;;;;;1.85;1.75;;;;;;;6.40;61.55;99242.44;5110745;28;20696;-57
2024/01/28 02:14:29;;;;;;;1.92;1.80;;;;;;;6.37;61.54;99229.69;5110863;28;20184;-57
2024/01/28 02:16:55;;;;;;;2.53;1.90;;;;;;;6.35;61.53;99232.31;5110764;28;20180;-56
2024/01/28 02:19:23;;;;;;;1.98;1.73;;;;;;;6.40;61.87;99245.84;5110691;28;20244;-55
2024/01/28 02:21:48;;;;;;;2.78;1.80;;;;;;;6.52;60.91;99235.06;5110367;28;20220;-55
2024/01/28 02:24:14;;;;;;;1.60;1.50;;;;;;;6.67;60.35;99236.22;5112342;28;20247;-55
2024/01/28 02:26:40;;;;;;;2.20;1.77;;;;;;;6.31;60.41;99197.38;5110315;28;20202;-55
2024/01/28 02:29:06;;;;;;;3.28;1.80;;;;;;;6.04;60.73;99177.88;5110361;28;20771;-56
2024/01/28 02:31:31;;;;;;;1.48;1.38;;;;;;;6.20;60.83;99190.97;5110396;28;20188;-55
2024/01/28 02:33:58;;;;;;;2.92;1.60;;;;;;;6.39;61.28;99241.59;5109894;28;20187;-55
2024/01/28 02:36:24;;;;;;;3.17;1.80;;;;;;;6.55;61.17;99264.97;5110341;28;20589;-55
2024/01/28 02:38:49;;;;;;;1.63;1.50;;;;;;;6.54;60.93;99258.97;5110280;28;20180;-55
2024/01/28 02:41:15;;;;;;;2.00;1.40;;;;;;;6.06;60.84;99191.50;5110177;28;20194;-55
2024/01/28 02:43:40;;;;;;;3.10;1.58;;;;;;;6.48;60.97;99259.22;5110121;28;20203;-55
2024/01/28 02:46:06;;;;;;;1.48;1.38;;;;;;;6.54;61.22;99264.13;5110160;28;20180;-55
2024/01/28 02:48:31;;;;;;;1.35;1.27;;;;;;;5.90;60.99;99172.41;5110124;28;20185;-55
2024/01/28 02:50:57;;;;;;;3.15;1.85;;;;;;;6.42;61.71;99268.91;5109932;28;20199;-55
2024/01/28 02:53:22;;;;;;;2.45;1.52;;;;;;;6.21;61.07;99224.31;5109982;28;20248;-55
2024/01/28 02:55:49;;;;;;;5.15;1.83;;;;;;;6.10;60.79;99189.63;5109953;28;20300;-55
2024/01/28 02:58:16;;;;;;;1.75;1.63;;;;;;;6.11;60.98;99197.28;5111522;28;20722;-55
2024/01/28 03:00:41;;;;;;;1.50;1.38;;;;;;;6.02;61.26;99197.66;5112269;28;20706;-55
2024/01/28 03:03:08;;;;;;;2.25;2.05;;;;;;;6.08;61.57;99205.13;5112236;28;20211;-55
2024/01/28 03:05:34;;;;;;;3.75;1.90;;;;;;;6.32;60.70;99253.00;5112231;28;20179;-55
2024/01/28 03:08:00;;;;;;;1.70;1.60;;;;;;;6.27;60.77;99233.50;5112221;28;20646;-55
2024/01/28 03:10:26;;;;;;;1.73;1.50;;;;;;;6.35;61.11;99263.16;5109582;28;20203;-55
2024/01/28 03:12:52;;;;;;;3.33;1.50;;;;;;;6.41;61.55;99282.69;5109616;28;20197;-55
2024/01/28 03:15:18;;;;;;;1.70;1.60;;;;;;;6.16;61.70;99239.06;5109567;28;20565;-55
2024/01/28 03:17:43;;;;;;;2.00;1.88;;;;;;;6.01;61.69;99213.13;5109565;28;20180;-55
2024/01/28 03:20:10;;;;;;;1.77;1.67;;;;;;;6.10;61.64;99231.59;5109610;28;20180;-55
2024/01/28 03:22:35;;;;;;;3.30;1.75;;;;;;;6.10;61.88;99241.03;5109251;28;20196;-57
2024/01/28 03:25:01;;;;;;;2.88;1.63;;;;;;;6.32;61.97;99288.16;5109428;28;20202;-55
2024/01/28 03:27:26;;;;;;;2.65;1.80;;;;;;;6.29;62.44;99298.56;5109512;28;20365;-55
2024/01/28 03:29:51;;;;;;;1.63;1.52;;;;;;;6.29;62.22;99299.38;5109002;28;20283;-55
2024/01/28 03:32:17;;;;;;;2.10;1.60;;;;;;;6.23;61.90;99294.47;5109429;28;20180;-55
2024/01/28 03:34:42;;;;;;;2.03;1.27;;;;;;;5.91;61.72;99243.44;5109443;28;20171;-55
2024/01/28 03:37:08;;;;;;;2.28;1.60;;;;;;;5.81;61.70;99230.97;5109336;28;20202;-55
2024/01/28 03:39:33;;;;;;;1.95;1.77;;;;;;;5.65;61.79;99202.44;5109374;28;20605;-55
2024/01/28 03:41:59;;;;;;;2.70;1.30;;;;;;;6.16;61.84;99299.88;5110876;28;20551;-56
2024/01/28 03:44:24;;;;;;;3.78;1.67;;;;;;;5.61;61.67;99210.31;5111711;28;20196;-55
2024/01/28 03:46:50;;;;;;;4.05;1.83;;;;;;;6.13;61.84;99293.13;5111718;28;20180;-56
2024/01/28 03:49:15;;;;;;;2.03;1.85;;;;;;;5.58;62.13;99206.13;5109076;28;20180;-56
2024/01/28 03:51:41;;;;;;;2.13;1.58;;;;;;;6.05;62.25;99289.16;5109266;28;20188;-56
2024/01/28 03:54:06;;;;;;;3.25;1.70;;;;;;;6.00;62.20;99291.91;5105909;28;20188;-56
2024/01/28 03:56:34;;;;;;;1.67;1.58;;;;;;;5.81;62.05;99248.97;5098786;28;20299;-56
2024/01/28 03:59:00;;;;;;;1.88;1.38;;;;;;;5.95;62.30;99291.22;5099515;28;20196;-56
2024/01/28 04:01:35;;;;;;;1.60;1.50;;;;;;;5.58;63.24;99244.63;5099575;28;20183;-56
2024/01/28 04:04:01;;;;;;;3.60;1.60;;;;;;;5.50;62.31;99213.25;5096627;28;20713;-56
2024/01/28 04:06:26;;;;;;;2.08;1.73;;;;;;;6.07;62.35;99310.50;5088770;28;20188;-56
2024/01/28 04:08:55;;;;;;;4.10;1.77;;;;;;;5.72;62.03;99255.22;5088716;28;20267;-56
2024/01/28 04:11:27;;;;;;;2.42;1.63;;;;;;;6.05;62.12;99315.69;5088684;28;20267;-55
2024/01/28 04:13:56;;;;;;;5.35;2.03;;;;;;;5.82;62.43;99294.31;5088722;28;20173;-56
2024/01/28 04:16:22;;;;;;;1.50;1.42;;;;;;;5.81;62.07;99280.63;5088674;28;20184;-56
2024/01/28 04:18:48;;;;;;;1.38;1.27;;;;;;;6.02;62.43;99302.97;5088734;28;20180;-55
2024/01/28 04:21:14;;;;;;;3.83;1.65;;;;;;;5.69;61.07;99245.09;5090281;28;20342;-56
2024/01/28 04:23:39;;;;;;;2.08;1.42;;;;;;;5.59;61.12;99233.44;5091078;28;20287;-55
2024/01/28 04:26:05;;;;;;;3.47;1.63;;;;;;;5.57;61.33;99234.41;5091011;28;20196;-56
2024/01/28 04:28:31;;;;;;;1.75;1.50;;;;;;;5.74;61.00;99256.03;5091100;28;20233;-56
2024/01/28 04:30:58;;;;;;;4.20;2.03;;;;;;;5.67;61.10;99246.03;5088690;28;20279;-56
2024/01/28 04:33:24;;;;;;;2.30;1.55;;;;;;;6.18;60.71;99327.19;5088521;28;20199;-55
2024/01/28 04:35:50;;;;;;;2.67;1.52;;;;;;;5.80;60.67;99271.25;5068151;28;20423;-56
2024/01/28 04:38:15;;;;;;;1.65;1.40;;;;;;;6.17;60.92;99332.41;5067614;28;20763;-55
2024/01/28 04:40:41;;;;;;;2.15;1.33;;;;;;;5.87;60.95;99298.38;5068210;28;20240;-56
2024/01/28 04:43:06;;;;;;;1.70;1.42;;;;;;;6.02;61.39;99320.97;5070510;28;20593;-56
2024/01/28 04:45:35;;;;;;;1.63;1.25;;;;;;;6.11;60.50;99341.16;5071809;28;20189;-56
2024/01/28 04:48:01;;;;;;;4.15;2.03;;;;;;;6.03;60.34;99327.75;5071766;28;20671;-55
2024/01/28 04:50:26;;;;;;;2.70;1.40;;;;;;;5.89;60.30;99299.16;5071672;28;20182;-56
2024/01/28 04:52:52;;;;;;;4.22;1.70;;;;;;;5.60;60.19;99259.97;5071763;28;20184;-56
2024/01/28 04:55:17;;;;;;;2.22;1.48;;;;;;;5.62;60.45;99273.59;5071489;28;20185;-56
2024/01/28 04:57:43;;;;;;;3.67;1.83;;;;;;;5.75;61.01;99300.50;5071560;28;20192;-56
2024/01/28 05:00:12;;;;;;;1.80;1.70;;;;;;;5.76;60.97;99313.28;5071801;28;20280;-56
2024/01/28 05:02:38;;;;;;;2.95;1.52;;;;;;;5.66;61.18;99304.22;5071429;28;20185;-55
2024/01/28 05:05:04;;;;;;;2.05;1.80;;;;;;;5.52;61.22;99280.78;5071505;28;20189;-56
2024/01/28 05:07:30;;;;;;;4.32;1.70;;;;;;;5.95;61.70;99370.84;5087301;28;20654;-56
2024/01/28 05:09:57;;;;;;;3.63;1.85;;;;;;;4.90;61.52;99194.00;5091607;28;21028;-55
2024/01/28 05:12:22;;;;;;;2.13;1.45;;;;;;;5.90;61.16;99352.19;5091542;28;20358;-56
2024/01/28 05:14:49;;;;;;;2.95;1.98;;;;;;;5.77;61.15;99338.06;5091474;28;20690;-55
2024/01/28 05:17:14;;;;;;;2.50;1.58;;;;;;;5.58;60.33;99292.53;5091470;28;20279;-55
2024/01/28 05:19:40;;;;;;;2.60;1.52;;;;;;;5.71;60.32;99315.16;5091475;28;20263;-55
2024/01/28 05:22:05;;;;;;;3.75;1.75;;;;;;;5.71;60.62;99333.16;5091200;28;20233;-55
2024/01/28 05:24:31;;;;;;;2.45;1.60;;;;;;;5.93;61.28;99382.06;5091239;28;20287;-55
2024/01/28 05:26:56;;;;;;;1.70;1.40;;;;;;;5.55;60.09;99293.47;5092915;28;20184;-55
2024/01/28 05:29:22;;;;;;;2.55;1.33;;;;;;;5.10;60.77;99248.03;5093728;28;20626;-55
2024/01/28 05:31:48;;;;;;;3.28;1.48;;;;;;;5.94;61.06;99410.28;5093623;28;20186;-56
2024/01/28 05:34:14;;;;;;;1.83;1.67;;;;;;;5.87;61.95;99408.81;5093571;28;20188;-55
2024/01/28 05:36:40;;;;;;;3.33;1.60;;;;;;;5.98;60.77;99417.00;5093438;28;20646;-56
2024/01/28 05:39:06;;;;;;;3.33;1.60;;;;;;;6.07;60.32;99400.41;5093403;28;20204;-56
2024/01/28 05:41:32;;;;;;;3.30;1.55;;;;;;;5.62;60.05;99310.38;5093372;28;20269;-56
2024/01/28 05:43:58;;;;;;;2.45;1.77;;;;;;;5.63;60.00;99324.88;5093303;28;20200;-56
2024/01/28 05:46:23;;;;;;;2.22;1.40;;;;;;;5.97;59.73;99379.34;5093364;28;20168;-56
2024/01/28 05:48:48;;;;;;;2.83;1.50;;;;;;;6.08;59.75;99397.81;5093252;28;20195;-56
2024/01/28 05:51:14;;;;;;;1.67;1.50;;;;;;;6.14;60.47;99432.72;5093208;28;20192;-56
2024/01/28 05:53:39;;;;;;;4.03;1.90;;;;;;;6.08;60.81;99433.78;5092570;28;20172;-56
2024/01/28 05:56:06;;;;;;;2.55;1.50;;;;;;;5.99;60.46;99417.81;5093125;28;20230;-56
2024/01/28 05:58:32;;;;;;;2.50;1.40;;;;;;;5.62;60.26;99333.47;5093146;28;20186;-56
2024/01/28 06:01:05;;;;;;;5.30;1.50;;;;;;;6.08;60.48;99413.22;5092970;28;20177;-56
2024/01/28 06:03:31;;;;;;;4.38;1.48;;;;;;;6.09;60.57;99432.88;5093008;28;20626;-56
2024/01/28 06:05:56;;;;;;;1.70;1.40;;;;;;;5.59;60.22;99336.13;5092929;28;20233;-56
2024/01/28 06:08:23;;;;;;;2.05;1.30;;;;;;;6.12;60.31;99424.22;5092962;28;20714;-56
2024/01/28 06:10:48;;;;;;;1.58;1.48;;;;;;;5.60;61.48;99357.53;5110648;28;20759;-56
2024/01/28 06:13:13;;;;;;;2.83;1.38;;;;;;;6.08;60.99;99441.47;5110791;28;20223;-57
2024/01/28 06:15:39;;;;;;;3.30;1.60;;;;;;;5.80;61.01;99386.81;5110767;28;20195;-56
2024/01/28 06:18:05;;;;;;;1.70;1.48;;;;;;;5.99;60.21;99408.38;5110632;28;20179;-56
2024/01/28 06:20:35;;;;;;;2.25;1.50;;;;;;;5.97;59.83;99394.78;5110567;28;20659;-57
2024/01/28 06:23:01;;;;;;;3.25;1.48;;;;;;;6.28;59.78;99449.31;5110330;28;20330;-56
2024/01/28 06:25:26;;;;;;;3.15;1.90;;;;;;;5.80;60.16;99375.69;5110644;28;20187;-56
2024/01/28 06:27:51;;;;;;;1.85;1.73;;;;;;;5.69;59.96;99352.91;5110466;28;20317;-57
2024/01/28 06:30:17;;;;;;;3.38;1.60;;;;;;;6.16;60.17;99447.19;5109984;28;20256;-57
2024/01/28 06:32:42;;;;;;;1.67;1.55;;;;;;;5.93;60.34;99421.44;5110394;28;20175;-57
2024/01/28 06:35:08;;;;;;;1.98;1.67;;;;;;;5.87;60.41;99408.81;5110639;28;20243;-57
2024/01/28 06:37:35;;;;;;;4.85;1.40;;;;;;;5.80;61.32;99411.63;5110311;28;20183;-57
2024/01/28 06:40:00;;;;;;;1.48;1.38;;;;;;;5.86;61.24;99422.53;5099565;28;20587;-57
2024/01/28 06:42:26;;;;;;;2.08;1.75;;;;;;;5.80;60.58;99389.38;5110220;28;20220;-57
2024/01/28 06:44:51;;;;;;;2.35;1.80;;;;;;;6.34;59.68;99463.69;5110047;28;20237;-56
2024/01/28 06:47:17;;;;;;;3.08;1.67;;;;;;;6.42;59.62;99459.94;5110075;28;20211;-56
2024/01/28 06:49:42;;;;;;;1.65;1.55;;;;;;;6.34;59.69;99461.97;5109997;28;20167;-56
2024/01/28 06:52:08;;;;;;;2.28;1.88;;;;;;;5.79;59.99;99363.69;5107961;28;20192;-57
2024/01/28 06:54:34;;;;;;;2.45;1.45;;;;;;;6.16;59.65;99425.78;5095537;28;20276;-56
2024/01/28 06:56:59;;;;;;;1.95;1.67;;;;;;;6.31;60.19;99461.25;5109468;28;20264;-56
2024/01/28 06:59:24;;;;;;;2.05;1.50;;;;;;;6.40;59.64;99463.50;5107769;28;20187;-56
2024/01/28 07:01:50;;;;;;;3.88;2.55;;;;;;;6.45;59.76;99472.72;5108894;28;20646;-56
2024/01/28 07:04:16;;;;;;;8.30;1.52;;;;;;;6.45;59.40;99464.16;5108190;28;20230;-56
2024/01/28 07:06:41;;;;;;;1.88;1.60;;;;;;;6.46;59.79;99468.44;5109246;28;20270;-56
2024/01/28 07:09:09;;;;;;;3.03;1.58;;;;;;;6.17;59.69;99420.59;5108857;28;20669;-56
2024/01/28 07:11:37;;;;;;;3.15;1.73;;;;;;;5.96;59.21;99374.25;5109221;28;20569;-56
2024/01/28 07:14:02;;;;;;;1.50;1.40;;;;;;;6.32;58.26;99421.78;5109594;28;20275;-56
2024/01/28 07:16:28;;;;;;;2.08;1.80;;;;;;;6.62;58.25;99475.53;5109666;28;20205;-57
2024/01/28 07:18:53;;;;;;;4.90;1.77;;;;;;;6.64;58.13;99476.31;5111621;28;20179;-56
2024/01/28 07:21:19;;;;;;;4.05;2.08;;;;;;;6.48;58.71;99418.59;5111765;28;20264;-56
2024/01/28 07:23:44;;;;;;;3.38;1.55;;;;;;;6.80;57.10;99420.84;5111479;28;20206;-56
2024/01/28 07:26:11;;;;;;;3.58;1.85;;;;;;;6.94;56.40;99425.47;5111515;28;20206;-56
2024/01/28 07:28:36;;;;;;;2.13;1.98;;;;;;;6.98;55.84;99430.44;5112107;28;20188;-57
2024/01/28 07:31:02;;;;;;;1.77;1.40;;;;;;;6.85;55.90;99405.22;5111812;28;20664;-56
2024/01/28 07:33:27;;;;;;;2.08;1.52;;;;;;;7.33;55.16;99488.28;5111718;28;20183;-57
2024/01/28 07:35:53;;;;;;;1.88;1.65;;;;;;;7.45;55.19;99509.25;5111483;28;20167;-57
2024/01/28 07:38:18;;;;;;;3.10;2.20;;;;;;;7.45;55.14;99504.09;5111632;28;20640;-56
2024/01/28 07:40:43;;;;;;;3.92;2.15;;;;;;;7.29;54.85;99481.59;5111353;28;20228;-57
2024/01/28 07:43:09;;;;;;;10.13;3.65;;;;;;;6.90;54.94;99447.91;5111547;28;20207;-56
2024/01/28 07:45:37;;;;;;;6.75;3.35;;;;;;;6.69;55.45;99435.84;5110951;28;20199;-56
2024/01/28 07:48:03;;;;;;;10.68;3.15;;;;;;;6.78;56.33;99443.22;5111596;28;20175;-56
2024/01/28 07:50:28;;;;;;;2.25;1.98;;;;;;;7.07;56.03;99497.00;5111314;28;20178;-56
2024/01/28 07:52:53;;;;;;;2.08;1.75;;;;;;;6.90;56.06;99475.34;5111201;28;20180;-56
2024/01/28 07:55:19;;;;;;;1.55;1.45;;;;;;;7.00;56.03;99492.13;5105400;28;20569;-56
2024/01/28 07:57:44;;;;;;;2.10;1.50;;;;;;;6.94;55.98;99488.03;5097031;28;20184;-56
2024/01/28 08:00:11;;;;;;;2.55;1.95;;;;;;;6.67;56.24;99458.22;5090805;28;20320;-56
2024/01/28 08:02:37;;;;;;;1.85;1.75;;;;;;;6.68;55.83;99441.03;5090757;28;20176;-56
2024/01/28 08:05:02;;;;;;;1.60;1.50;;;;;;;6.34;55.85;99405.41;5090580;28;20169;-56
2024/01/28 08:07:28;;;;;;;2.88;1.48;;;;;;;6.89;55.91;99478.84;5090821;28;20184;-56
2024/01/28 08:09:53;;;;;;;2.22;1.58;;;;;;;6.90;55.86;99473.63;5090724;28;20202;-56
2024/01/28 08:12:18;;;;;;;1.98;1.50;;;;;;;6.24;55.46;99362.94;5090757;28;20631;-56
2024/01/28 08:14:44;;;;;;;1.92;1.67;;;;;;;7.05;55.75;99493.63;5090825;28;20187;-56
2024/01/28 08:17:10;;;;;;;3.17;1.70;;;;;;;6.87;55.01;99447.19;5093455;28;20176;-55
2024/01/28 08:19:36;;;;;;;2.05;1.75;;;;;;;6.79;55.17;99444.91;5094477;28;20183;-55
2024/01/28 08:22:02;;;;;;;2.67;1.85;;;;;;;6.60;54.84;99397.63;5091577;28;20235;-56
2024/01/28 08:24:27;;;;;;;1.90;1.80;;;;;;;7.27;54.71;99499.66;5091690;28;20281;-56
2024/01/28 08:26:53;;;;;;;4.38;1.65;;;;;;;6.63;54.28;99386.34;5092038;28;20713;-56
2024/01/28 08:29:18;;;;;;;6.78;2.10;;;;;;;7.16;53.71;99470.09;5092006;28;20177;-57
2024/01/28 08:31:43;;;;;;;5.60;1.77;;;;;;;7.02;53.98;99439.72;5091908;28;20180;-56
2024/01/28 08:34:09;;;;;;;1.70;1.25;;;;;;;6.93;53.31;99419.47;5091924;28;20188;-56
2024/01/28 08:36:34;;;;;;;3.40;1.80;;;;;;;6.90;53.67;99427.34;5091894;28;20189;-56
2024/01/28 08:39:00;;;;;;;2.35;1.50;;;;;;;7.40;53.69;99510.34;5091845;28;20678;-56
2024/01/28 08:41:25;;;;;;;3.38;2.22;;;;;;;7.05;53.13;99444.75;5091768;28;20211;-56
2024/01/28 08:43:51;;;;;;;2.08;1.35;;;;;;;7.15;53.24;99464.09;5091610;28;20330;-56
2024/01/28 08:46:16;;;;;;;2.97;1.70;;;;;;;7.50;53.26;99527.09;5092000;28;20224;-56
2024/01/28 08:48:42;;;;;;;1.75;1.60;;;;;;;7.34;53.30;99490.81;5091717;28;20263;-56
2024/01/28 08:51:09;;;;;;;1.45;1.25;;;;;;;7.55;53.01;99520.03;5091703;28;20560;-57
2024/01/28 08:53:34;;;;;;;1.80;1.40;;;;;;;7.58;52.83;99533.63;5091547;28;20283;-56
2024/01/28 08:56:00;;;;;;;1.98;1.50;;;;;;;7.13;52.86;99483.91;5091687;28;20267;-56
2024/01/28 08:58:26;;;;;;;1.48;1.38;;;;;;;7.43;53.23;99541.97;5091779;28;20181;-56
2024/01/28 09:00:51;;;;;;;3.45;1.92;;;;;;;7.25;53.54;99524.63;5091371;28;20275;-56
2024/01/28 09:03:16;;;;;;;2.35;1.40;;;;;;;6.79;53.17;99444.91;5091464;28;20605;-56
2024/01/28 09:05:42;;;;;;;2.65;1.75;;;;;;;7.01;53.52;99483.53;5091494;28;20184;-56
2024/01/28 09:08:07;;;;;;;2.80;1.98;;;;;;;7.43;52.90;99541.09;5091524;28;20185;-57
2024/01/28 09:10:33;;;;;;;3.25;1.40;;;;;;;7.53;52.68;99534.72;5090955;28;20636;-57
2024/01/28 09:12:58;;;;;;;1.60;1.35;;;;;;;7.46;51.83;99516.06;5091391;28;20242;-56
2024/01/28 09:15:24;;;;;;;1.70;1.60;;;;;;;7.42;52.08;99527.41;5091273;28;20557;-56
2024/01/28 09:17:49;;;;;;;2.05;1.67;;;;;;;7.36;51.92;99499.31;5091117;28;20245;-56
2024/01/28 09:20:15;;;;;;;2.35;1.35;;;;;;;7.65;52.39;99566.00;5091224;28;20287;-56
2024/01/28 09:22:40;;;;;;;2.90;1.80;;;;;;;7.68;52.62;99560.72;5090758;28;20196;-57
2024/01/28 09:25:06;;;;;;;1.73;1.60;;;;;;;7.17;52.33;99456.31;5090121;28;20617;-57
2024/01/28 09:27:31;;;;;;;3.50;1.60;;;;;;;7.49;52.27;99528.84;5090378;28;20727;-57
2024/01/28 09:29:57;;;;;;;2.70;1.63;;;;;;;7.52;52.85;99544.16;5091125;28;20560;-56
2024/01/28 09:32:25;;;;;;;2.30;1.80;;;;;;;7.23;53.25;99492.94;5092591;28;20218;-56
2024/01/28 09:34:51;;;;;;;2.92;2.22;;;;;;;7.25;53.80;99480.88;5093739;28;20601;-57
2024/01/28 09:37:18;;;;;;;3.55;2.10;;;;;;;7.72;53.40;99544.25;5093428;28;20274;-57
2024/01/28 09:39:44;;;;;;;5.18;2.65;;;;;;;7.63;53.05;99493.09;5093442;28;20195;-57
2024/01/28 09:42:16;;;;;;;3.38;2.40;;;;;;;7.42;52.79;99441.59;5111052;28;20656;-56
2024/01/28 09:44:41;;;;;;;3.58;1.50;;;;;;;7.90;51.59;99502.28;5111104;28;20299;-57
2024/01/28 09:47:08;;;;;;;3.28;1.65;;;;;;;8.07;52.14;99523.06;5107991;28;20252;-56
2024/01/28 09:49:39;;;;;;;1.77;1.67;;;;;;;7.42;52.44;99432.16;5111301;28;20702;-56
2024/01/28 09:52:10;;;;;;;3.92;1.65;;;;;;;7.70;52.39;99479.06;5121985;27;20184;-57
2024/01/28 09:54:37;;;;;;;1.85;1.70;;;;;;;8.09;51.64;99538.47;5116506;27;20260;-57
2024/01/28 09:57:05;;;;;;;2.38;1.60;;;;;;;7.91;51.39;99528.88;5113006;27;20636;-56
2024/01/28 09:59:34;;;;;;;3.42;1.50;;;;;;;7.74;51.09;99495.25;5119400;27;20179;-56
2024/01/28 10:02:01;;;;;;;1.30;1.20;;;;;;;7.87;51.03;99524.78;5121314;27;20248;-57
2024/01/28 10:04:27;;;;;;;2.35;2.17;;;;;;;7.96;51.31;99526.97;5120553;27;20207;-55
2024/01/28 10:06:57;;;;;;;3.30;1.50;;;;;;;7.90;50.92;99497.16;5128160;27;20283;-56
2024/01/28 10:09:24;;;;;;;2.78;1.67;;;;;;;8.10;50.71;99510.03;5131031;27;20577;-55
2024/01/28 10:11:49;;;;;;;2.47;1.52;;;;;;;8.00;50.02;99500.19;5131008;27;20185;-56
2024/01/28 10:14:15;;;;;;;1.45;1.30;;;;;;;7.71;50.10;99470.44;5111175;27;20282;-55
2024/01/28 10:16:40;;;;;;;3.22;1.75;;;;;;;8.11;50.98;99541.81;5110415;28;20672;-56
2024/01/28 10:19:06;;;;;;;1.80;1.30;;;;;;;7.66;50.41;99472.38;5110023;28;20215;-55
2024/01/28 10:21:31;;;;;;;3.35;1.30;;;;;;;7.54;50.71;99448.84;5110114;28;20199;-55
2024/01/28 10:23:57;;;;;;;1.92;1.50;;;;;;;7.85;50.03;99499.06;5110089;28;20215;-56
2024/01/28 10:26:24;;;;;;;1.50;1.40;;;;;;;8.10;50.01;99528.09;5110218;28;20172;-56
2024/01/28 10:28:51;;;;;;;2.53;1.40;;;;;;;7.87;49.56;99481.78;5110398;28;20183;-56
2024/01/28 10:31:17;;;;;;;2.20;1.17;;;;;;;7.70;49.67;99473.91;5110038;28;20195;-56
2024/01/28 10:33:43;;;;;;;1.85;1.67;;;;;;;7.55;49.26;99442.78;5110415;28;20200;-57
2024/01/28 10:36:10;;;;;;;2.40;1.40;;;;;;;8.06;49.22;99534.28;5069242;28;20757;-57
2024/01/28 10:38:44;;;;;;;0.90;0.90;;;;;;;7.55;49.43;99453.06;5069321;28;20208;-57
2024/01/28 10:41:22;;;;;;;2.03;1.40;;;;;;;7.99;49.43;99519.13;5068568;28;20189;-57
2024/01/28 10:43:57;;;;;;;1.52;1.40;;;;;;;7.82;48.78;99493.19;5069194;28;20658;-56
2024/01/28 10:46:29;;;;;;;1.50;1.38;;;;;;;8.06;49.19;99512.81;5049167;28;20193;-57
2024/01/28 10:48:57;;;;;;;3.08;2.20;;;;;;;7.66;48.87;99444.03;5049205;28;20194;-56
2024/01/28 10:51:23;;;;;;;1.52;1.42;;;;;;;8.02;48.78;99525.00;5049208;28;20221;-57
2024/01/28 10:53:51;;;;;;;1.45;1.35;;;;;;;7.96;48.52;99517.50;5029098;28;20362;-57
2024/01/28 10:56:17;;;;;;;1.27;1.17;;;;;;;7.55;48.46;99445.34;5029121;28;20562;-56
2024/01/28 10:58:44;;;;;;;1.27;1.20;;;;;;;7.90;48.10;99515.19;5029218;28;20205;-57
2024/01/28 11:01:10;;;;;;;1.55;1.25;;;;;;;7.40;48.12;99438.25;5029198;28;20191;-57
2024/01/28 11:03:35;;;;;;;2.03;1.52;;;;;;;7.55;48.32;99464.22;5028995;28;20611;-57
2024/01/28 11:06:01;;;;;;;1.38;1.30;;;;;;;7.55;48.32;99474.53;5031083;28;20241;-57
2024/01/28 11:08:26;;;;;;;1.67;1.58;;;;;;;7.55;48.33;99461.66;5089129;28;20192;-57
2024/01/28 11:10:52;;;;;;;1.20;1.20;;;;;;;7.83;48.39;99520.63;5068619;28;20189;-56
2024/01/28 11:13:18;;;;;;;1.65;1.20;;;;;;;7.74;48.41;99488.34;5048473;28;20694;-56
2024/01/28 11:15:45;;;;;;;2.05;1.45;;;;;;;7.51;48.66;99456.69;5048733;28;20189;-58
2024/01/28 11:18:11;;;;;;;4.00;1.30;;;;;;;7.91;48.66;99523.72;5065610;28;20193;-57
2024/01/28 11:20:37;;;;;;;1.60;1.50;;;;;;;7.86;48.35;99500.72;5068617;28;20517;-56
2024/01/28 11:23:04;;;;;;;2.13;1.45;;;;;;;7.69;48.12;99454.19;5068485;28;20712;-57
2024/01/28 11:25:30;;;;;;;2.45;2.00;;;;;;;7.66;48.10;99456.06;5032700;28;20595;-57
2024/01/28 11:28:06;;;;;;;1.77;1.67;;;;;;;7.86;48.40;99490.44;5028761;28;20277;-57
2024/01/28 11:30:34;;;;;;;1.30;1.20;;;;;;;7.93;48.07;99509.88;5028654;28;20182;-58
2024/01/28 11:33:12;;;;;;;2.53;1.55;;;;;;;7.98;48.06;99525.19;5028673;28;20182;-57
2024/01/28 11:35:41;;;;;;;3.03;1.90;;;;;;;7.42;48.97;99439.88;5018427;28;20222;-58